createdAt,value
2023-05-20T00:00:56.805Z,27.95
2023-05-20T00:03:24.495Z,28.32
2023-05-20T00:05:52.393Z,28.08
2023-05-20T00:08:20.237Z,28.38
2023-05-20T00:10:47.912Z,28.19
2023-05-20T00:13:15.568Z,28.34
2023-05-20T00:15:43.590Z,28.44
2023-05-20T00:18:11.214Z,28.80
2023-05-20T00:20:38.977Z,28.55
2023-05-20T00:23:06.592Z,28.67
2023-05-20T00:25:34.417Z,28.85
2023-05-20T00:28:02.196Z,28.83
2023-05-20T00:30:29.830Z,28.80
2023-05-20T00:32:57.710Z,29.10
2023-05-20T00:35:25.516Z,28.82
2023-05-20T00:37:53.104Z,28.62
2023-05-20T00:40:22.194Z,28.32
2023-05-20T00:42:49.746Z,28.56
2023-05-20T00:45:18.254Z,29.04
2023-05-20T00:47:46.220Z,28.96
2023-05-20T00:50:14.067Z,29.12
2023-05-20T00:52:45.399Z,29.29
2023-05-20T00:55:13.110Z,29.32
2023-05-20T00:57:41.340Z,29.26
2023-05-20T01:00:10.874Z,28.97
2023-05-20T01:02:39.072Z,29.15
2023-05-20T01:05:07.314Z,29.28
2023-05-20T01:07:35.118Z,29.09
2023-05-20T01:10:03.142Z,29.31
2023-05-20T01:12:39.716Z,29.50
2023-05-20T01:15:13.094Z,28.87
2023-05-20T01:17:51.810Z,29.40
2023-05-20T01:20:21.414Z,29.21
2023-05-20T01:22:57.358Z,29.75
2023-05-20T01:25:25.502Z,29.63
2023-05-20T01:27:55.325Z,29.41
2023-05-20T01:30:29.655Z,29.54
2023-05-20T01:33:02.962Z,29.70
2023-05-20T01:35:32.241Z,29.38
2023-05-20T01:38:01.352Z,29.45
2023-05-20T01:40:30.498Z,29.67
2023-05-20T01:42:59.585Z,29.47
2023-05-20T01:45:27.161Z,29.41
2023-05-20T01:47:54.958Z,29.22
2023-05-20T01:50:22.788Z,29.14
2023-05-20T01:52:50.479Z,29.51
2023-05-20T01:55:18.381Z,29.03
2023-05-20T01:57:46.092Z,29.22
2023-05-20T02:00:14.060Z,29.13
2023-05-20T02:02:42.190Z,29.46
2023-05-20T02:05:12.542Z,29.24
2023-05-20T02:07:42.698Z,29.47
2023-05-20T02:10:11.017Z,29.36
2023-05-20T02:12:39.067Z,29.37
2023-05-20T02:15:08.494Z,29.49
2023-05-20T02:17:37.808Z,29.44
2023-05-20T02:20:25.383Z,29.06
2023-05-20T02:22:53.057Z,29.09
2023-05-20T02:25:20.712Z,29.42
2023-05-20T02:27:48.849Z,28.90
2023-05-20T02:30:17.572Z,28.96
2023-05-20T02:32:45.454Z,28.33
2023-05-20T02:35:13.189Z,28.18
2023-05-20T02:37:40.999Z,28.16
2023-05-20T02:40:09.602Z,27.97
2023-05-20T02:42:39.028Z,28.02
2023-05-20T02:45:08.750Z,27.90
2023-05-20T02:47:36.497Z,28.25
2023-05-20T02:50:07.389Z,27.91
2023-05-20T02:52:35.119Z,27.79
2023-05-20T02:55:04.176Z,27.80
2023-05-20T02:57:34.221Z,27.21
2023-05-20T03:00:02.098Z,26.17
2023-05-20T03:02:33.346Z,24.62
2023-05-20T03:05:02.841Z,23.70
2023-05-20T03:07:36.676Z,22.16
2023-05-20T03:10:08.307Z,21.67
2023-05-20T03:12:36.399Z,20.57
2023-05-20T03:15:04.153Z,19.04
2023-05-20T03:17:33.799Z,17.19
2023-05-20T03:20:02.269Z,16.29
2023-05-20T03:22:33.664Z,16.21
2023-05-20T03:25:02.700Z,15.56
2023-05-20T03:27:37.139Z,15.27
2023-05-20T03:30:05.539Z,15.23
2023-05-20T03:32:34.650Z,14.97
2023-05-20T03:35:02.611Z,14.09
2023-05-20T03:37:32.615Z,14.08
2023-05-20T03:40:00.625Z,13.58
2023-05-20T03:42:28.234Z,13.04
2023-05-20T03:44:56.551Z,13.08
2023-05-20T03:47:27.770Z,12.49
2023-05-20T03:49:56.016Z,11.75
2023-05-20T03:52:23.792Z,11.30
2023-05-20T03:54:51.742Z,11.58
2023-05-20T03:57:20.082Z,11.70
2023-05-20T03:59:47.999Z,11.73
2023-05-20T04:02:16.064Z,11.49
2023-05-20T04:04:44.566Z,11.44
2023-05-20T04:07:12.385Z,11.01
2023-05-20T04:09:40.726Z,10.98
2023-05-20T04:12:08.351Z,10.77
2023-05-20T04:14:36.116Z,10.66
2023-05-20T04:17:05.092Z,10.36
2023-05-20T04:19:35.136Z,9.62
2023-05-20T04:22:02.998Z,9.37
2023-05-20T04:24:31.701Z,9.08
2023-05-20T04:26:59.354Z,8.93
2023-05-20T04:29:30.400Z,8.70
2023-05-20T04:31:59.032Z,8.80
2023-05-20T04:34:30.175Z,8.36
2023-05-20T04:36:58.248Z,8.38
2023-05-20T04:39:27.482Z,8.34
2023-05-20T04:41:55.457Z,8.02
2023-05-20T04:44:25.006Z,8.25
2023-05-20T04:46:52.979Z,8.61
2023-05-20T04:49:20.759Z,8.26
2023-05-20T04:51:50.307Z,8.55
2023-05-20T04:54:20.625Z,8.54
2023-05-20T04:56:48.428Z,8.11
2023-05-20T04:59:16.251Z,8.35
2023-05-20T05:01:43.896Z,8.01
2023-05-20T05:04:11.951Z,7.76
2023-05-20T05:06:39.811Z,7.93
2023-05-20T05:09:08.475Z,8.46
2023-05-20T05:11:39.538Z,8.13
2023-05-20T05:14:07.319Z,7.89
2023-05-20T05:16:35.800Z,7.32
2023-05-20T05:19:03.635Z,7.19
2023-05-20T05:21:34.870Z,7.55
2023-05-20T05:24:02.570Z,7.29
2023-05-20T05:26:30.911Z,7.40
2023-05-20T05:28:58.753Z,7.54
2023-05-20T05:31:26.553Z,7.03
2023-05-20T05:33:54.616Z,7.18
2023-05-20T05:36:24.490Z,6.77
2023-05-20T05:38:52.579Z,7.16
2023-05-20T05:41:20.521Z,6.61
2023-05-20T05:43:48.318Z,6.89
2023-05-20T05:46:16.160Z,6.78
2023-05-20T05:48:49.098Z,6.66
2023-05-20T05:51:18.294Z,6.85
2023-05-20T05:53:47.640Z,6.46
2023-05-20T05:56:15.363Z,6.49
2023-05-20T05:58:43.367Z,6.42
2023-05-20T06:01:11.936Z,6.60
2023-05-20T06:03:39.655Z,6.44
2023-05-20T06:06:07.457Z,6.22
2023-05-20T06:08:35.953Z,6.57
2023-05-20T06:11:03.710Z,6.57
2023-05-20T06:13:31.604Z,6.78
2023-05-20T06:15:59.292Z,6.19
2023-05-20T06:18:27.327Z,5.75
2023-05-20T06:20:58.837Z,6.16
2023-05-20T06:23:27.328Z,5.95
2023-05-20T06:26:06.393Z,6.05
2023-05-20T06:28:34.949Z,6.28
2023-05-20T06:31:03.485Z,6.58
2023-05-20T06:33:34.325Z,6.31
2023-05-20T06:36:07.009Z,6.37
2023-05-20T06:38:34.643Z,6.58
2023-05-20T06:41:02.705Z,6.47
2023-05-20T06:43:31.350Z,6.60
2023-05-20T06:46:31.312Z,6.18
2023-05-20T06:49:06.286Z,6.13
2023-05-20T06:51:33.931Z,6.18
2023-05-20T06:54:02.176Z,5.97
2023-05-20T06:56:31.667Z,6.37
2023-05-20T06:59:00.032Z,6.07
2023-05-20T07:01:28.438Z,6.02
2023-05-20T07:03:57.479Z,5.99
2023-05-20T07:06:25.725Z,6.31
2023-05-20T07:08:54.410Z,5.92
2023-05-20T07:11:22.999Z,6.29
2023-05-20T07:13:50.655Z,6.20
2023-05-20T07:16:19.245Z,6.75
2023-05-20T07:18:53.450Z,6.20
2023-05-20T07:21:21.596Z,6.36
2023-05-20T07:24:12.268Z,6.81
2023-05-20T07:26:40.217Z,6.57
2023-05-20T07:29:08.218Z,6.71
2023-05-20T07:31:37.717Z,7.02
2023-05-20T07:34:05.449Z,7.40
2023-05-20T07:36:33.109Z,7.83
2023-05-20T07:39:08.407Z,8.26
2023-05-20T07:41:40.555Z,8.21
2023-05-20T07:44:11.619Z,8.27
2023-05-20T07:46:42.842Z,8.30
2023-05-20T07:49:12.032Z,8.33
2023-05-20T07:51:40.547Z,8.77
2023-05-20T07:54:08.731Z,8.38
2023-05-20T07:56:37.849Z,9.13
2023-05-20T07:59:07.121Z,9.18
2023-05-20T08:01:42.536Z,9.14
2023-05-20T08:04:11.912Z,8.99
2023-05-20T08:06:40.119Z,8.89
2023-05-20T08:09:12.026Z,9.39
2023-05-20T08:11:47.326Z,9.65
2023-05-20T08:14:15.596Z,9.81
2023-05-20T08:16:45.351Z,9.84
2023-05-20T08:19:13.085Z,10.09
2023-05-20T08:21:40.715Z,10.46
2023-05-20T08:24:08.333Z,10.26
2023-05-20T08:26:37.388Z,9.78
2023-05-20T08:29:06.466Z,10.61
2023-05-20T08:31:34.673Z,10.44
2023-05-20T08:34:03.290Z,10.46
2023-05-20T08:36:31.047Z,10.45
2023-05-20T08:38:58.629Z,10.03
2023-05-20T08:41:26.708Z,9.70
2023-05-20T08:43:55.365Z,9.76
2023-05-20T08:46:24.010Z,10.01
2023-05-20T08:48:52.056Z,10.23
2023-05-20T08:51:23.746Z,10.61
2023-05-20T08:53:52.214Z,10.53
2023-05-20T08:56:20.316Z,10.20
2023-05-20T08:58:48.250Z,10.46
2023-05-20T09:01:16.008Z,10.24
2023-05-20T09:03:43.779Z,10.63
2023-05-20T09:06:11.442Z,10.33
2023-05-20T09:08:39.837Z,10.98
2023-05-20T09:11:10.569Z,10.97
2023-05-20T09:13:38.222Z,10.95
2023-05-20T09:16:06.490Z,10.96
2023-05-20T09:18:34.133Z,11.21
2023-05-20T09:21:09.228Z,11.03
2023-05-20T09:23:39.944Z,11.05
2023-05-20T09:26:07.973Z,11.46
2023-05-20T09:28:38.577Z,11.10
2023-05-20T09:31:07.025Z,11.18
2023-05-20T09:33:36.022Z,11.40
2023-05-20T09:36:10.932Z,11.38
2023-05-20T09:38:40.464Z,11.21
2023-05-20T09:41:10.866Z,11.45
2023-05-20T09:43:40.738Z,11.88
2023-05-20T09:46:09.146Z,11.85
2023-05-20T09:48:37.942Z,12.12
2023-05-20T09:51:07.234Z,11.93
2023-05-20T09:53:35.034Z,11.73
2023-05-20T09:56:02.689Z,11.94
2023-05-20T09:58:30.993Z,11.68
2023-05-20T10:00:58.712Z,11.88
2023-05-20T10:03:28.713Z,11.40
2023-05-20T10:06:02.334Z,11.41
2023-05-20T10:08:29.667Z,11.23
2023-05-20T10:11:07.051Z,12.08
2023-05-20T10:14:12.988Z,11.30
2023-05-20T10:16:58.931Z,10.95
2023-05-20T10:19:36.503Z,10.81
2023-05-20T10:22:12.259Z,11.46
2023-05-20T10:24:41.755Z,11.65
2023-05-20T10:27:17.422Z,11.80
2023-05-20T10:29:53.450Z,11.73
2023-05-20T10:32:34.578Z,12.06
2023-05-20T10:35:09.467Z,12.04
2023-05-20T10:37:46.271Z,12.05
2023-05-20T10:40:16.140Z,11.89
2023-05-20T10:42:44.021Z,11.96
2023-05-20T10:45:12.726Z,12.43
2023-05-20T10:47:58.331Z,12.16
2023-05-20T10:50:41.004Z,12.14
2023-05-20T10:53:22.003Z,12.37
2023-05-20T10:56:00.345Z,12.18
2023-05-20T10:58:27.955Z,12.09
2023-05-20T11:00:56.506Z,12.00
2023-05-20T11:03:25.722Z,12.40
2023-05-20T11:05:53.440Z,12.44
2023-05-20T11:08:29.092Z,12.55
2023-05-20T11:10:58.288Z,12.61
2023-05-20T11:13:27.267Z,12.81
2023-05-20T11:15:55.810Z,12.68
2023-05-20T11:18:23.547Z,12.66
2023-05-20T11:20:51.468Z,12.62
2023-05-20T11:23:19.494Z,12.68
2023-05-20T11:25:47.098Z,12.66
2023-05-20T11:28:14.964Z,12.54
2023-05-20T11:30:43.710Z,12.59
2023-05-20T11:33:16.156Z,12.68
2023-05-20T11:35:47.970Z,12.40
2023-05-20T11:38:16.372Z,12.45
2023-05-20T11:40:50.954Z,12.46
2023-05-20T11:43:20.426Z,12.10
2023-05-20T11:45:54.327Z,12.06
2023-05-20T11:48:22.279Z,12.07
2023-05-20T11:50:49.916Z,12.22
2023-05-20T11:53:19.168Z,12.38
2023-05-20T11:55:54.598Z,12.79
2023-05-20T11:58:25.784Z,12.97
2023-05-20T12:00:59.555Z,12.87
2023-05-20T12:03:33.486Z,12.85
2023-05-20T12:06:04.892Z,13.07
2023-05-20T12:08:33.029Z,13.56
2023-05-20T12:11:00.736Z,13.66
2023-05-20T12:13:28.498Z,13.82
2023-05-20T12:15:56.263Z,14.00
2023-05-20T12:18:24.113Z,13.92
2023-05-20T12:20:51.877Z,13.55
2023-05-20T12:23:19.580Z,13.62
2023-05-20T12:25:50.168Z,13.93
2023-05-20T12:28:18.086Z,13.91
2023-05-20T12:30:45.677Z,13.82
2023-05-20T12:33:13.257Z,13.98
2023-05-20T12:35:42.601Z,14.04
2023-05-20T12:38:10.850Z,14.12
2023-05-20T12:40:38.763Z,13.66
2023-05-20T12:43:07.018Z,13.86
2023-05-20T12:45:34.752Z,13.90
2023-05-20T12:48:02.621Z,14.02
2023-05-20T12:50:30.418Z,14.39
2023-05-20T12:52:58.070Z,13.91
2023-05-20T12:55:25.824Z,14.34
2023-05-20T12:57:56.753Z,14.23
2023-05-20T13:00:24.517Z,14.37
2023-05-20T13:02:53.199Z,14.02
2023-05-20T13:05:20.979Z,13.88
2023-05-20T13:07:49.420Z,14.18
2023-05-20T13:10:18.281Z,13.85
2023-05-20T13:12:47.335Z,14.28
2023-05-20T13:15:15.250Z,14.36
2023-05-20T13:17:43.293Z,14.57
2023-05-20T13:20:12.246Z,14.48
2023-05-20T13:22:39.894Z,14.63
2023-05-20T13:25:08.426Z,14.74
2023-05-20T13:27:36.180Z,14.73
2023-05-20T13:30:04.579Z,14.75
2023-05-20T13:32:33.254Z,14.80
2023-05-20T13:35:01.254Z,14.85
2023-05-20T13:37:30.381Z,14.73
2023-05-20T13:39:57.937Z,14.66
2023-05-20T13:42:25.776Z,14.71
2023-05-20T13:44:53.383Z,14.55
2023-05-20T13:47:21.275Z,14.67
2023-05-20T13:49:49.325Z,14.72
2023-05-20T13:52:16.989Z,14.55
2023-05-20T13:54:47.045Z,14.71
2023-05-20T13:57:15.446Z,14.61
2023-05-20T13:59:42.953Z,14.65
2023-05-20T14:02:11.301Z,14.53
2023-05-20T14:04:40.320Z,14.31
2023-05-20T14:07:09.891Z,14.33
2023-05-20T14:09:37.776Z,14.26
2023-05-20T14:12:06.580Z,14.32
2023-05-20T14:14:34.304Z,14.47
2023-05-20T14:17:01.833Z,14.92
2023-05-20T14:19:30.386Z,14.89
2023-05-20T14:22:01.422Z,14.95
2023-05-20T14:24:29.811Z,14.60
2023-05-20T14:26:57.466Z,14.81
2023-05-20T14:29:25.371Z,14.85
2023-05-20T14:31:53.034Z,14.97
2023-05-20T14:34:21.634Z,14.81
2023-05-20T14:36:49.334Z,14.86
2023-05-20T14:39:17.459Z,14.91
2023-05-20T14:41:45.114Z,14.95
2023-05-20T14:44:12.732Z,14.96
2023-05-20T14:46:40.564Z,14.73
2023-05-20T14:49:08.213Z,14.73
2023-05-20T14:51:35.782Z,14.79
2023-05-20T14:54:03.387Z,15.05
2023-05-20T14:56:31.620Z,15.30
2023-05-20T14:58:59.311Z,15.05
2023-05-20T15:01:26.958Z,15.20
2023-05-20T15:03:54.626Z,15.08
2023-05-20T15:06:22.216Z,15.27
2023-05-20T15:08:49.849Z,15.56
2023-05-20T15:11:17.416Z,15.17
2023-05-20T15:13:46.772Z,15.87
2023-05-20T15:16:14.499Z,15.03
2023-05-20T15:18:42.332Z,15.64
2023-05-20T15:21:10.113Z,16.26
2023-05-20T15:23:37.731Z,15.56
2023-05-20T15:26:05.439Z,15.58
2023-05-20T15:28:33.133Z,16.22
2023-05-20T15:31:00.918Z,15.56
2023-05-20T15:33:28.620Z,15.96
2023-05-20T15:35:56.726Z,15.78
2023-05-20T15:38:24.462Z,15.85
2023-05-20T15:40:51.997Z,15.82
2023-05-20T15:43:20.251Z,15.74
2023-05-20T15:45:48.654Z,15.94
2023-05-20T15:48:16.658Z,15.90
2023-05-20T15:50:44.454Z,15.70
2023-05-20T15:53:12.100Z,16.04
2023-05-20T15:55:39.800Z,16.29
2023-05-20T15:58:07.447Z,16.21
2023-05-20T16:00:35.519Z,16.20
2023-05-20T16:03:03.676Z,16.03
2023-05-20T16:05:31.569Z,16.25
2023-05-20T16:07:59.364Z,16.40
2023-05-20T16:10:33.041Z,16.37
2023-05-20T16:13:01.579Z,16.41
2023-05-20T16:15:35.864Z,16.19
2023-05-20T16:18:03.807Z,16.29
2023-05-20T16:20:31.962Z,16.33
2023-05-20T16:22:59.610Z,16.44
2023-05-20T16:25:27.239Z,16.60
2023-05-20T16:27:54.913Z,16.51
2023-05-20T16:30:22.621Z,17.06
2023-05-20T16:32:50.264Z,16.89
2023-05-20T16:35:17.868Z,16.98
2023-05-20T16:37:45.735Z,16.92
2023-05-20T16:40:13.653Z,16.82
2023-05-20T16:42:42.520Z,17.27
2023-05-20T16:45:10.714Z,17.28
2023-05-20T16:47:38.663Z,17.17
2023-05-20T16:50:06.957Z,17.61
2023-05-20T16:52:35.272Z,17.62
2023-05-20T16:55:04.865Z,17.62
2023-05-20T16:57:33.649Z,17.63
2023-05-20T17:00:01.459Z,17.50
2023-05-20T17:02:33.043Z,17.83
2023-05-20T17:05:00.692Z,17.49
2023-05-20T17:07:28.254Z,17.77
2023-05-20T17:09:56.164Z,17.68
2023-05-20T17:12:23.810Z,17.65
2023-05-20T17:14:51.541Z,17.90
2023-05-20T17:17:19.151Z,18.19
2023-05-20T17:19:46.886Z,18.17
2023-05-20T17:22:14.558Z,18.60
2023-05-20T17:24:42.199Z,19.41
2023-05-20T17:27:10.104Z,20.40
2023-05-20T17:29:37.745Z,20.10
2023-05-20T17:32:05.931Z,20.17
2023-05-20T17:34:33.822Z,20.09
2023-05-20T17:37:01.514Z,20.41
2023-05-20T17:39:29.290Z,20.31
2023-05-20T17:41:56.936Z,19.90
2023-05-20T17:44:24.474Z,20.22
2023-05-20T17:46:52.165Z,20.06
2023-05-20T17:49:19.862Z,20.03
2023-05-20T17:51:47.414Z,19.54
2023-05-20T17:54:15.398Z,19.45
2023-05-20T17:56:44.840Z,19.80
2023-05-20T17:59:12.357Z,19.81
2023-05-20T18:01:40.060Z,19.69
2023-05-20T18:04:07.770Z,20.33
2023-05-20T18:06:36.527Z,20.53
2023-05-20T18:09:05.348Z,20.63
2023-05-20T18:11:35.464Z,20.46
2023-05-20T18:14:03.272Z,20.51
2023-05-20T18:16:31.290Z,20.72
2023-05-20T18:18:59.004Z,20.96
2023-05-20T18:21:26.788Z,20.73
2023-05-20T18:23:54.740Z,21.28
2023-05-20T18:26:22.991Z,20.92
2023-05-20T18:28:50.565Z,21.03
2023-05-20T18:31:18.355Z,20.87
2023-05-20T18:33:46.292Z,20.82
2023-05-20T18:36:13.891Z,20.83
2023-05-20T18:38:42.008Z,20.98
2023-05-20T18:41:09.989Z,20.80
2023-05-20T18:43:37.745Z,21.13
2023-05-20T18:46:05.736Z,21.21
2023-05-20T18:48:33.352Z,21.32
2023-05-20T18:51:01.183Z,21.61
2023-05-20T18:53:28.702Z,21.60
2023-05-20T18:55:57.467Z,21.76
2023-05-20T18:58:24.993Z,21.90
2023-05-20T19:00:52.742Z,22.00
2023-05-20T19:03:20.424Z,21.82
2023-05-20T19:05:48.055Z,21.87
2023-05-20T19:08:16.049Z,22.16
2023-05-20T19:10:43.857Z,22.00
2023-05-20T19:13:11.556Z,22.21
2023-05-20T19:15:39.192Z,22.39
2023-05-20T19:18:06.918Z,22.16
2023-05-20T19:20:35.124Z,22.10
2023-05-20T19:23:03.236Z,22.33
2023-05-20T19:25:30.840Z,22.39
2023-05-20T19:27:58.445Z,22.46
2023-05-20T19:30:26.162Z,22.49
2023-05-20T19:32:53.836Z,22.54
2023-05-20T19:35:21.669Z,22.54
2023-05-20T19:37:49.275Z,22.45
2023-05-20T19:40:16.895Z,22.23
2023-05-20T19:42:44.673Z,22.26
2023-05-20T19:45:12.452Z,22.59
2023-05-20T19:47:40.228Z,22.26
2023-05-20T19:50:08.800Z,22.89
2023-05-20T19:52:36.586Z,22.66
2023-05-20T19:55:04.496Z,22.89
2023-05-20T19:57:33.370Z,23.25
2023-05-20T20:00:00.995Z,22.96
2023-05-20T20:02:28.827Z,23.45
2023-05-20T20:04:56.456Z,23.04
2023-05-20T20:07:24.152Z,23.01
2023-05-20T20:09:55.489Z,23.33
2023-05-20T20:12:23.909Z,23.70
2023-05-20T20:14:52.506Z,23.06
2023-05-20T20:17:22.575Z,23.15
2023-05-20T20:19:53.520Z,23.12
2023-05-20T20:22:21.553Z,23.35
2023-05-20T20:24:50.295Z,23.44
2023-05-20T20:27:19.523Z,23.71
2023-05-20T20:29:47.218Z,23.68
2023-05-20T20:32:14.983Z,24.24
2023-05-20T20:34:43.367Z,24.79
2023-05-20T20:37:15.200Z,23.90
2023-05-20T20:39:45.595Z,24.06
2023-05-20T20:42:13.357Z,23.45
2023-05-20T20:44:43.118Z,23.46
2023-05-20T20:47:10.768Z,24.24
2023-05-20T20:49:38.283Z,24.24
2023-05-20T20:52:06.397Z,24.85
2023-05-20T20:54:34.492Z,25.10
2023-05-20T20:57:02.984Z,25.73
2023-05-20T20:59:30.580Z,25.77
2023-05-20T21:01:58.257Z,25.98
2023-05-20T21:04:28.079Z,26.27
2023-05-20T21:06:55.707Z,26.70
2023-05-20T21:09:23.786Z,26.00
2023-05-20T21:11:51.331Z,26.40
2023-05-20T21:14:18.906Z,26.57
2023-05-20T21:16:46.557Z,26.84
2023-05-20T21:19:14.436Z,27.16
2023-05-20T21:21:42.145Z,27.47
2023-05-20T21:24:09.834Z,27.53
2023-05-20T21:26:37.289Z,27.95
2023-05-20T21:29:06.269Z,27.84
2023-05-20T21:31:33.934Z,27.94
2023-05-20T21:34:01.582Z,28.71
2023-05-20T21:36:29.307Z,29.78
2023-05-20T21:38:57.115Z,29.63
2023-05-20T21:41:24.833Z,29.12
2023-05-20T21:43:52.379Z,29.34
2023-05-20T21:46:19.954Z,29.00
2023-05-20T21:48:47.567Z,29.26
2023-05-20T21:51:15.232Z,29.00
2023-05-20T21:53:42.858Z,29.46
2023-05-20T21:56:10.495Z,28.80
2023-05-20T21:58:41.396Z,29.75
2023-05-20T22:01:10.391Z,30.30
2023-05-20T22:03:40.152Z,30.84
2023-05-20T22:06:08.064Z,31.68
2023-05-20T22:08:35.643Z,32.29
2023-05-20T22:11:07.786Z,32.43
2023-05-20T22:13:36.477Z,32.91
2023-05-20T22:16:05.348Z,32.54
2023-05-20T22:18:33.107Z,33.09
2023-05-20T22:21:01.421Z,32.68
2023-05-20T22:23:29.254Z,33.71
2023-05-20T22:25:57.360Z,33.42
2023-05-20T22:28:26.516Z,33.58
2023-05-20T22:30:54.951Z,33.73
2023-05-20T22:33:23.187Z,33.86
2023-05-20T22:35:51.738Z,33.56
2023-05-20T22:38:19.578Z,33.89
2023-05-20T22:40:47.491Z,34.35
2023-05-20T22:43:16.776Z,34.66
2023-05-20T22:45:44.574Z,34.30
2023-05-20T22:48:12.755Z,34.04
2023-05-20T22:50:40.485Z,34.80
2023-05-20T22:53:08.069Z,34.88
2023-05-20T22:55:38.996Z,35.09
2023-05-20T22:58:08.251Z,35.37
2023-05-20T23:00:36.118Z,35.59
2023-05-20T23:03:03.746Z,36.05
2023-05-20T23:05:32.095Z,35.86
2023-05-20T23:08:00.110Z,35.90
2023-05-20T23:10:27.772Z,36.47
2023-05-20T23:12:55.362Z,36.36
2023-05-20T23:15:25.549Z,36.50
2023-05-20T23:17:53.531Z,36.43
2023-05-20T23:20:22.558Z,36.58
2023-05-20T23:22:50.330Z,36.93
2023-05-20T23:25:17.947Z,37.20
2023-05-20T23:27:45.868Z,38.22
2023-05-20T23:30:13.565Z,37.33
2023-05-20T23:32:41.689Z,38.99
2023-05-20T23:35:11.938Z,38.96
2023-05-20T23:37:41.257Z,39.30
2023-05-20T23:40:12.505Z,38.86
2023-05-20T23:42:40.685Z,38.58
2023-05-20T23:45:08.828Z,38.55
2023-05-20T23:47:38.079Z,38.13
2023-05-20T23:50:06.185Z,37.66
2023-05-20T23:52:34.519Z,38.15
2023-05-20T23:55:02.142Z,37.55
2023-05-20T23:57:32.558Z,38.18
